Airfield :
LOGIN :

Register | Disclaimer

   EN    FR    IT 

 










Legend :    VFR   Marginal VFR   IFR   Intensive IFR   Very Intensive IFR
Visi :
Ceiling :
>= 8 km
>= 3000ft
5 to 8 km
1000 to 3000 ft
1500m to 5 km
500 to 1000 ft
800 to 1500m
200 to 500 ft
< 800m
< 200 ft
Symbols :   Thunderstorms  Fog  Heavy snow  Heavy precipitations  Wind > 20 kt
SIGMETs :     Misc.  Thunderstorms  Icing  Turbulence  Mountain Waves  Volcanic Ashes







- Airport Elevation : 141 ft
- IATA code : SKS


EKSP - Srydstrup Vojens

CURRENT METAR :
  • 251350Z 31013KT 280V340 9999 FEW028 20/13 Q1021

EXPIRED METARs :
  • 251320Z 32012KT 280V350 9999 FEW028 20/14 Q1021
  • 251250Z 32013KT 290V350 9999 FEW030 SCT240 20/13 Q1021
  • 251220Z 32013KT 280V350 9999 FEW026 SCT240 20/12 Q1021
  • 251150Z 31013KT 270V350 CAVOK 19/12 Q1021 RMK SCT240
  • 251120Z 31012KT 280V340 9999 FEW028 SCT240 19/11 Q1021

TAF TAF EKSP
Valid from the 25 at 12:00 until the 26 at 12:00 UTC


251124Z 2512/2612 32010KT 9999 SCT200
TEMPO 2512/2516 30012G22KT
TEMPO 2521/2606 2000 BR BKN003
No reported NOTAMs for that airfield.



MET'MAP, your aeronautical weather chart ! - Copyright ORBIFLY December 2007 - Disclaimer

ORBIFLY MET'MAP TEAM :

Programming & Development : Alexandra Zaïnal
Concept & Development : Baudouin d'Aumeries
Co-Development & Prog : Marc-Olivier Méhu
Technical & hardware support : Manuel Goepfert

Contact : metmap@orbifly.com




SOURCES & CREDITS :

   NOAA